Vg 117 Kungsvik — SBTH — position and weather

sailwx.info

Track history (hours):
 
Tides and Currents Weather Stations Pressure Air Temp Water Temp Dewpoint Dewpoint Depression Visibility Wind Speed Wind Dir Waves Ship Positions

Vg 117 Kungsvik

Last reported at 2014-Dec-19 12:32 UTC. Time now 2014-Dec-19 13:34 UTC.
Position N 57°04' E 012°16'.

Length 17 m.

Type: Fishing. MMSI: 266137000.

Date/timePositionNaut miles runAvg speedWind from/ knotsBaromVisibWave heightAir tempDewpointWater temp
2014-Dec-19 12:32N 57°04' E 012°16'0 0.0
2014-Dec-19 11:32N 57°04' E 012°16'0 0.0
2014-Dec-19 10:32N 57°04' E 012°16'0 0.0
2014-Dec-19 09:26N 57°04' E 012°16'0 0.0
2014-Dec-19 08:32N 57°04' E 012°16'0 0.0
2014-Dec-19 07:26N 57°04' E 012°16'0 0.0
2014-Dec-19 06:26N 57°04' E 012°16'0 0.0
2014-Dec-19 05:32N 57°04' E 012°16'0 0.0
2014-Dec-19 04:32N 57°04' E 012°16'0 0.0
2014-Dec-19 03:08N 57°04' E 012°16'0 0.0
2014-Dec-19 02:26N 57°04' E 012°16'0 0.0
2014-Dec-19 01:32N 57°04' E 012°16'0 0.0
2014-Dec-19 00:26N 57°04' E 012°16'0 0.0
2014-Dec-18 23:26N 57°04' E 012°16'0 0.0
2014-Dec-18 22:26N 57°04' E 012°16'0 0.0
2014-Dec-18 21:32N 57°04' E 012°16'0 0.0
2014-Dec-18 20:32N 57°04' E 012°16'0 0.0
2014-Dec-18 19:32N 57°04' E 012°16'0 0.0
2014-Dec-18 18:32N 57°04' E 012°16'0 0.0
2014-Dec-18 17:26N 57°04' E 012°16'0 0.0
2014-Dec-18 16:14N 57°04' E 012°16'1 0.9
2014-Dec-18 15:24N 57°03' E 012°15'4 4.4
2014-Dec-18 14:33N 57°00' E 012°11'1 1.0
2014-Dec-18 13:33N 57°00' E 012°09'2 2.5
2014-Dec-18 12:33N 56°59' E 012°05'2 2.3
2014-Dec-18 11:31N 57°01' E 012°01'0 0.0
2014-Dec-18 10:09N 57°01' E 012°01'1 2.2
2014-Dec-18 09:31N 56°60' E 012°03'2 2.1
2014-Dec-18 08:33N 56°60' E 012°06'2 2.2
2014-Dec-18 07:32N 57°01' E 012°10'3 2.8
2014-Dec-18 06:32N 57°03' E 012°13'2 1.8
2014-Dec-18 05:29N 57°04' E 012°16'0 0.0
2014-Dec-18 04:23N 57°04' E 012°16'0 0.0
2014-Dec-18 03:29N 57°04' E 012°16'0 0.0
2014-Dec-18 02:29N 57°04' E 012°16'0 0.0
2014-Dec-18 01:29N 57°04' E 012°16'0 0.0
2014-Dec-18 00:17N 57°04' E 012°16'0 0.0
2014-Dec-17 23:11N 57°04' E 012°16'0 0.0
2014-Dec-17 22:11N 57°04' E 012°16'0 0.0
2014-Dec-17 21:29N 57°04' E 012°16'0 0.0
2014-Dec-17 20:17N 57°04' E 012°16'0 0.0
2014-Dec-17 19:11N 57°04' E 012°16'0 0.0
2014-Dec-17 18:29N 57°04' E 012°16'0 0.0
2014-Dec-17 17:29N 57°04' E 012°16'3 2.5
2014-Dec-17 16:29N 57°03' E 012°12'5 5.2
2014-Dec-17 15:33N 57°03' E 012°03'1 0.2
2014-Dec-17 09:33N 57°02' E 012°01'2 2.4
2014-Dec-17 08:32N 57°03' E 012°06'4 3.8
2014-Dec-17 07:32N 57°03' E 012°13'2 1.8
2014-Dec-17 06:24N 57°04' E 012°16'0 0.0
2014-Dec-17 05:30N 57°04' E 012°16'0 0.0
2014-Dec-17 04:24N 57°04' E 012°16'0 0.0
2014-Dec-17 03:30N 57°04' E 012°16'0 0.0
2014-Dec-17 02:30N 57°04' E 012°16'0 0.0
2014-Dec-17 01:24N 57°04' E 012°16'0 0.0
2014-Dec-17 00:24N 57°04' E 012°16'0 0.0
2014-Dec-16 23:24N 57°04' E 012°16'0 0.0
2014-Dec-16 22:30N 57°04' E 012°16'0 0.0
2014-Dec-16 21:30N 57°04' E 012°16'0 0.0
2014-Dec-16 20:24N 57°04' E 012°16'0 0.0
2014-Dec-16 19:24N 57°04' E 012°16'0 0.0
2014-Dec-16 18:18N 57°04' E 012°16'0 0.0
2014-Dec-16 17:30N 57°04' E 012°16'0 0.0
2014-Dec-16 16:30N 57°04' E 012°16'0 0.0
2014-Dec-16 15:30N 57°04' E 012°16'0 0.0
2014-Dec-16 14:30N 57°04' E 012°16'0 0.0
2014-Dec-16 13:24N 57°04' E 012°16'0 0.0
2014-Dec-16 07:24N 57°04' E 012°16'0 0.0
2014-Dec-16 06:12N 57°04' E 012°16'0 0.0
2014-Dec-16 05:30N 57°04' E 012°16'0 0.0
2014-Dec-16 04:25N 57°04' E 012°16'0 0.0
2014-Dec-16 03:24N 57°04' E 012°16'0 0.0
2014-Dec-16 01:06N 57°04' E 012°16'0 0.0
2014-Dec-16 00:06N 57°04' E 012°16'0 0.0
2014-Dec-15 23:18N 57°04' E 012°16'0 0.0
2014-Dec-15 22:30N 57°04' E 012°16'0 0.0
2014-Dec-15 21:24N 57°04' E 012°16'0 0.0
2014-Dec-15 20:30N 57°04' E 012°16'0 0.0
2014-Dec-15 19:25N 57°04' E 012°16'0 0.0
2014-Dec-15 18:30N 57°04' E 012°16'0 0.0
2014-Dec-15 17:24N 57°04' E 012°16'0 0.0
2014-Dec-15 16:18N 57°04' E 012°16'0 0.0
2014-Dec-15 15:30N 57°04' E 012°16'0 0.0
2014-Dec-15 14:31N 57°04' E 012°16'0 0.0
2014-Dec-15 13:25N 57°04' E 012°16'0 0.0
2014-Dec-15 12:31N 57°04' E 012°16'0 0.0
2014-Dec-15 11:31N 57°04' E 012°16'0 0.0
2014-Dec-15 10:31N 57°04' E 012°16'0 0.0
2014-Dec-15 09:31N 57°04' E 012°16'0 0.0
2014-Dec-15 08:19N 57°04' E 012°16'0 0.0
2014-Dec-15 07:07N 57°04' E 012°16'0 0.0
2014-Dec-15 06:31N 57°04' E 012°16'0 0.0
2014-Dec-15 05:19N 57°04' E 012°16'0 0.0
2014-Dec-15 04:31N 57°04' E 012°16'0 0.0
2014-Dec-15 03:13N 57°04' E 012°16'0 0.0
2014-Dec-15 02:19N 57°04' E 012°16'0 0.0
2014-Dec-15 01:25N 57°04' E 012°16'0 0.0
2014-Dec-15 00:31N 57°04' E 012°16'0 0.0
2014-Dec-14 23:31N 57°04' E 012°16'0 0.0
2014-Dec-14 22:31N 57°04' E 012°16'0 0.0
2014-Dec-14 21:31N 57°04' E 012°16'0 0.0
2014-Dec-14 20:31N 57°04' E 012°16'0 0.0
2014-Dec-14 19:31N 57°04' E 012°16'0 0.0
2014-Dec-14 18:25N 57°04' E 012°16'0 0.0
2014-Dec-14 17:07N 57°04' E 012°16'0 0.0
2014-Dec-14 16:25N 57°04' E 012°16'0 0.0
2014-Dec-14 15:25N 57°04' E 012°16'0 0.0
2014-Dec-14 14:19N 57°04' E 012°16'0 0.0
2014-Dec-14 12:19N 57°04' E 012°16'0 0.0
2014-Dec-14 11:25N 57°04' E 012°16'0 0.0
2014-Dec-14 10:19N 57°04' E 012°16'0 0.0
2014-Dec-14 09:19N 57°04' E 012°16'0 0.0
2014-Dec-14 08:25N 57°04' E 012°16'0 0.0
2014-Dec-14 07:31N 57°04' E 012°16'0 0.0
2014-Dec-14 06:25N 57°04' E 012°16'0 0.0
2014-Dec-14 05:31N 57°04' E 012°16'0 0.0
2014-Dec-14 04:31N 57°04' E 012°16'0 0.0
2014-Dec-14 03:31N 57°04' E 012°16'0 0.0
2014-Dec-14 02:31N 57°04' E 012°16'0 0.0
2014-Dec-14 01:31N 57°04' E 012°16'0 0.0
2014-Dec-14 00:25N 57°04' E 012°16'0 0.0
2014-Dec-13 23:31N 57°04' E 012°16'0 0.0
2014-Dec-13 22:31N 57°04' E 012°16'0 0.0
2014-Dec-13 21:31N 57°04' E 012°16'0 0.0
2014-Dec-13 20:25N 57°04' E 012°16'0 0.0
2014-Dec-13 19:31N 57°04' E 012°16'0 0.0
2014-Dec-13 18:31N 57°04' E 012°16'0 0.0
2014-Dec-13 17:25N 57°04' E 012°16'0 0.0
2014-Dec-13 16:19N 57°04' E 012°16'0 0.0
2014-Dec-13 15:31N 57°04' E 012°16'0 0.0
2014-Dec-13 14:07N 57°04' E 012°16'0 0.0
2014-Dec-13 13:25N 57°04' E 012°16'0 0.0
2014-Dec-13 12:19N 57°04' E 012°16'0 0.0
2014-Dec-13 11:19N 57°04' E 012°16'0 0.0
2014-Dec-13 10:13N 57°04' E 012°16'0 0.0
2014-Dec-13 09:31N 57°04' E 012°16'0 0.0
2014-Dec-13 08:31N 57°04' E 012°16'0 0.0
2014-Dec-13 07:31N 57°04' E 012°16'0 0.0
2014-Dec-13 06:31N 57°04' E 012°16'0 0.0
2014-Dec-13 05:19N 57°04' E 012°16'0 0.0
2014-Dec-13 04:31N 57°04' E 012°16'0 0.0
2014-Dec-13 03:25N 57°04' E 012°16'0 0.0
2014-Dec-13 02:25N 57°04' E 012°16'0 0.0
2014-Dec-13 01:31N 57°04' E 012°16'0 0.0
2014-Dec-13 00:31N 57°04' E 012°16'0 0.0
2014-Dec-12 23:31N 57°04' E 012°16'0 0.0
2014-Dec-12 22:31N 57°04' E 012°16'0 0.0
2014-Dec-12 21:31N 57°04' E 012°16'0 0.0
2014-Dec-12 20:31N 57°04' E 012°16'0 0.0
2014-Dec-12 19:31N 57°04' E 012°16'0 0.0
2014-Dec-12 18:25N 57°04' E 012°16'0 0.0
2014-Dec-12 17:31N 57°04' E 012°16'0 0.0
2014-Dec-12 16:25N 57°04' E 012°16'0 0.0
2014-Dec-12 14:31N 57°04' E 012°16'0 0.0
2014-Dec-12 13:25N 57°04' E 012°16'0 0.0
2014-Dec-12 12:25N 57°04' E 012°16'0 0.0
2014-Dec-12 11:19N 57°04' E 012°16'0 0.0
2014-Dec-12 10:31N 57°04' E 012°16'0 0.0
2014-Dec-12 09:31N 57°04' E 012°16'0 0.0
2014-Dec-12 08:25N 57°04' E 012°16'0 0.0
2014-Dec-12 07:31N 57°04' E 012°16'0 0.0
2014-Dec-12 06:31N 57°04' E 012°16'0 0.0
2014-Dec-12 05:31N 57°04' E 012°16'0 0.0
2014-Dec-12 03:31N 57°04' E 012°16'0 0.0
2014-Dec-12 02:31N 57°04' E 012°16'0 0.0
2014-Dec-12 01:25N 57°04' E 012°16'0 0.0
2014-Dec-12 00:31N 57°04' E 012°16'0 0.0
2014-Dec-11 23:25N 57°04' E 012°16'0 0.0
2014-Dec-11 22:19N 57°04' E 012°16'0 0.0
2014-Dec-11 21:31N 57°04' E 012°16'0 0.0
2014-Dec-11 20:19N 57°04' E 012°16'0 0.0
2014-Dec-11 19:25N 57°04' E 012°16'0 0.0
2014-Dec-11 18:19N 57°04' E 012°16'0 0.0
2014-Dec-11 17:31N 57°04' E 012°16'0 0.0
2014-Dec-11 16:31N 57°04' E 012°16'0 0.0
2014-Dec-11 15:19N 57°04' E 012°16'0 0.0
2014-Dec-11 14:25N 57°04' E 012°16'0 0.0
2014-Dec-11 13:25N 57°04' E 012°16'0 0.0
2014-Dec-11 12:25N 57°04' E 012°16'0 0.0
2014-Dec-11 11:19N 57°04' E 012°16'0 0.0
2014-Dec-11 10:13N 57°04' E 012°16'0 0.0
2014-Dec-11 09:31N 57°04' E 012°16'0 0.0
2014-Dec-11 08:31N 57°04' E 012°16'0 0.0
2014-Dec-11 07:25N 57°04' E 012°16'0 0.0
2014-Dec-11 06:31N 57°04' E 012°16'0 0.0
2014-Dec-11 05:31N 57°04' E 012°16'0 0.0
2014-Dec-11 04:13N 57°04' E 012°16'0 0.0
2014-Dec-11 03:31N 57°04' E 012°16'0 0.0
2014-Dec-11 02:25N 57°04' E 012°16'0 0.0
2014-Dec-11 01:19N 57°04' E 012°16'0 0.0
2014-Dec-11 00:19N 57°04' E 012°16'0 0.0
2014-Dec-10 23:31N 57°04' E 012°16'0 0.0
2014-Dec-10 22:31N 57°04' E 012°16'0 0.0
2014-Dec-10 21:13N 57°04' E 012°16'0 0.0
2014-Dec-10 20:19N 57°04' E 012°16'0 0.0
2014-Dec-10 19:31N 57°04' E 012°16'0 0.0
2014-Dec-10 18:25N 57°04' E 012°16'0 0.0
2014-Dec-10 17:31N 57°04' E 012°16'0 0.0
2014-Dec-10 16:25N 57°04' E 012°16'0 0.0
2014-Dec-10 15:32N 57°04' E 012°16'0 0.0
2014-Dec-10 14:32N 57°04' E 012°16'0 0.0
2014-Dec-10 13:32N 57°04' E 012°16'0 0.0
2014-Dec-10 12:32N 57°04' E 012°16'0 0.0
2014-Dec-10 10:32N 57°04' E 012°16'0 0.0
2014-Dec-10 08:26N 57°04' E 012°16'0 0.0
2014-Dec-10 07:32N 57°04' E 012°16'0 0.0
2014-Dec-10 06:08N 57°04' E 012°16'0 0.0
2014-Dec-10 05:32N 57°04' E 012°16'0 0.0
2014-Dec-10 04:32N 57°04' E 012°16'0 0.0
2014-Dec-10 03:08N 57°04' E 012°16'0 0.0
2014-Dec-10 02:32N 57°04' E 012°16'0 0.0
2014-Dec-10 01:26N 57°04' E 012°16'0 0.0
2014-Dec-10 00:32N 57°04' E 012°16'0 0.0
2014-Dec-09 23:32N 57°04' E 012°16'0 0.0
2014-Dec-09 22:32N 57°04' E 012°16'0 0.0
2014-Dec-09 20:26N 57°04' E 012°16'0 0.0
2014-Dec-09 19:26N 57°04' E 012°16'0 0.0
2014-Dec-09 18:32N 57°04' E 012°16'0 0.2
2014-Dec-09 16:28N 57°03' E 012°16'7 7.9
2014-Dec-09 15:31N 57°02' E 012°02'3 2.6
2014-Dec-09 14:33N 57°02' E 011°58'  
Track history (hours):
 
Tides and Currents Weather Stations Pressure Air Temp Water Temp Dewpoint Dewpoint Depression Visibility Wind Speed Wind Dir Waves Ship Positions

Vg 117 Kungsvik

Last reported at 2014-Dec-19 12:32 UTC. Time now 2014-Dec-19 13:34 UTC.
Position N 57°04' E 012°16'.

Length 17 m.

Type: Fishing. MMSI: 266137000.

Date/timePositionNaut miles runAvg speedWind from/ knotsBaromVisibWave heightAir tempDewpointWater temp
2014-Dec-19 12:32N 57°04' E 012°16'0 0.0
2014-Dec-19 11:32N 57°04' E 012°16'0 0.0
2014-Dec-19 10:32N 57°04' E 012°16'0 0.0
2014-Dec-19 09:26N 57°04' E 012°16'0 0.0
2014-Dec-19 08:32N 57°04' E 012°16'0 0.0
2014-Dec-19 07:26N 57°04' E 012°16'0 0.0
2014-Dec-19 06:26N 57°04' E 012°16'0 0.0
2014-Dec-19 05:32N 57°04' E 012°16'0 0.0
2014-Dec-19 04:32N 57°04' E 012°16'0 0.0
2014-Dec-19 03:08N 57°04' E 012°16'0 0.0
2014-Dec-19 02:26N 57°04' E 012°16'0 0.0
2014-Dec-19 01:32N 57°04' E 012°16'0 0.0
2014-Dec-19 00:26N 57°04' E 012°16'0 0.0
2014-Dec-18 23:26N 57°04' E 012°16'0 0.0
2014-Dec-18 22:26N 57°04' E 012°16'0 0.0
2014-Dec-18 21:32N 57°04' E 012°16'0 0.0
2014-Dec-18 20:32N 57°04' E 012°16'0 0.0
2014-Dec-18 19:32N 57°04' E 012°16'0 0.0
2014-Dec-18 18:32N 57°04' E 012°16'0 0.0
2014-Dec-18 17:26N 57°04' E 012°16'0 0.0
2014-Dec-18 16:14N 57°04' E 012°16'1 0.9
2014-Dec-18 15:24N 57°03' E 012°15'4 4.4
2014-Dec-18 14:33N 57°00' E 012°11'1 1.0
2014-Dec-18 13:33N 57°00' E 012°09'2 2.5
2014-Dec-18 12:33N 56°59' E 012°05'2 2.3
2014-Dec-18 11:31N 57°01' E 012°01'0 0.0
2014-Dec-18 10:09N 57°01' E 012°01'1 2.2
2014-Dec-18 09:31N 56°60' E 012°03'2 2.1
2014-Dec-18 08:33N 56°60' E 012°06'2 2.2
2014-Dec-18 07:32N 57°01' E 012°10'3 2.8
2014-Dec-18 06:32N 57°03' E 012°13'2 1.8
2014-Dec-18 05:29N 57°04' E 012°16'0 0.0
2014-Dec-18 04:23N 57°04' E 012°16'0 0.0
2014-Dec-18 03:29N 57°04' E 012°16'0 0.0
2014-Dec-18 02:29N 57°04' E 012°16'0 0.0
2014-Dec-18 01:29N 57°04' E 012°16'0 0.0
2014-Dec-18 00:17N 57°04' E 012°16'0 0.0
2014-Dec-17 23:11N 57°04' E 012°16'0 0.0
2014-Dec-17 22:11N 57°04' E 012°16'0 0.0
2014-Dec-17 21:29N 57°04' E 012°16'0 0.0
2014-Dec-17 20:17N 57°04' E 012°16'0 0.0
2014-Dec-17 19:11N 57°04' E 012°16'0 0.0
2014-Dec-17 18:29N 57°04' E 012°16'0 0.0
2014-Dec-17 17:29N 57°04' E 012°16'3 2.5
2014-Dec-17 16:29N 57°03' E 012°12'5 5.2
2014-Dec-17 15:33N 57°03' E 012°03'1 0.2
2014-Dec-17 09:33N 57°02' E 012°01'2 2.4
2014-Dec-17 08:32N 57°03' E 012°06'4 3.8
2014-Dec-17 07:32N 57°03' E 012°13'2 1.8
2014-Dec-17 06:24N 57°04' E 012°16'0 0.0
2014-Dec-17 05:30N 57°04' E 012°16'0 0.0
2014-Dec-17 04:24N 57°04' E 012°16'0 0.0
2014-Dec-17 03:30N 57°04' E 012°16'0 0.0
2014-Dec-17 02:30N 57°04' E 012°16'0 0.0
2014-Dec-17 01:24N 57°04' E 012°16'0 0.0
2014-Dec-17 00:24N 57°04' E 012°16'0 0.0
2014-Dec-16 23:24N 57°04' E 012°16'0 0.0
2014-Dec-16 22:30N 57°04' E 012°16'0 0.0
2014-Dec-16 21:30N 57°04' E 012°16'0 0.0
2014-Dec-16 20:24N 57°04' E 012°16'0 0.0
2014-Dec-16 19:24N 57°04' E 012°16'0 0.0
2014-Dec-16 18:18N 57°04' E 012°16'0 0.0
2014-Dec-16 17:30N 57°04' E 012°16'0 0.0
2014-Dec-16 16:30N 57°04' E 012°16'0 0.0
2014-Dec-16 15:30N 57°04' E 012°16'0 0.0
2014-Dec-16 14:30N 57°04' E 012°16'0 0.0
2014-Dec-16 13:24N 57°04' E 012°16'0 0.0
2014-Dec-16 07:24N 57°04' E 012°16'0 0.0
2014-Dec-16 06:12N 57°04' E 012°16'0 0.0
2014-Dec-16 05:30N 57°04' E 012°16'0 0.0
2014-Dec-16 04:25N 57°04' E 012°16'0 0.0
2014-Dec-16 03:24N 57°04' E 012°16'0 0.0
2014-Dec-16 01:06N 57°04' E 012°16'0 0.0
2014-Dec-16 00:06N 57°04' E 012°16'0 0.0
2014-Dec-15 23:18N 57°04' E 012°16'0 0.0
2014-Dec-15 22:30N 57°04' E 012°16'0 0.0
2014-Dec-15 21:24N 57°04' E 012°16'0 0.0
2014-Dec-15 20:30N 57°04' E 012°16'0 0.0
2014-Dec-15 19:25N 57°04' E 012°16'0 0.0
2014-Dec-15 18:30N 57°04' E 012°16'0 0.0
2014-Dec-15 17:24N 57°04' E 012°16'0 0.0
2014-Dec-15 16:18N 57°04' E 012°16'0 0.0
2014-Dec-15 15:30N 57°04' E 012°16'0 0.0
2014-Dec-15 14:31N 57°04' E 012°16'0 0.0
2014-Dec-15 13:25N 57°04' E 012°16'0 0.0
2014-Dec-15 12:31N 57°04' E 012°16'0 0.0
2014-Dec-15 11:31N 57°04' E 012°16'0 0.0
2014-Dec-15 10:31N 57°04' E 012°16'0 0.0
2014-Dec-15 09:31N 57°04' E 012°16'0 0.0
2014-Dec-15 08:19N 57°04' E 012°16'0 0.0
2014-Dec-15 07:07N 57°04' E 012°16'0 0.0
2014-Dec-15 06:31N 57°04' E 012°16'0 0.0
2014-Dec-15 05:19N 57°04' E 012°16'0 0.0
2014-Dec-15 04:31N 57°04' E 012°16'0 0.0
2014-Dec-15 03:13N 57°04' E 012°16'0 0.0
2014-Dec-15 02:19N 57°04' E 012°16'0 0.0
2014-Dec-15 01:25N 57°04' E 012°16'0 0.0
2014-Dec-15 00:31N 57°04' E 012°16'0 0.0
2014-Dec-14 23:31N 57°04' E 012°16'0 0.0
2014-Dec-14 22:31N 57°04' E 012°16'0 0.0
2014-Dec-14 21:31N 57°04' E 012°16'0 0.0
2014-Dec-14 20:31N 57°04' E 012°16'0 0.0
2014-Dec-14 19:31N 57°04' E 012°16'0 0.0
2014-Dec-14 18:25N 57°04' E 012°16'0 0.0
2014-Dec-14 17:07N 57°04' E 012°16'0 0.0
2014-Dec-14 16:25N 57°04' E 012°16'0 0.0
2014-Dec-14 15:25N 57°04' E 012°16'0 0.0
2014-Dec-14 14:19N 57°04' E 012°16'0 0.0
2014-Dec-14 12:19N 57°04' E 012°16'0 0.0
2014-Dec-14 11:25N 57°04' E 012°16'0 0.0
2014-Dec-14 10:19N 57°04' E 012°16'0 0.0
2014-Dec-14 09:19N 57°04' E 012°16'0 0.0
2014-Dec-14 08:25N 57°04' E 012°16'0 0.0
2014-Dec-14 07:31N 57°04' E 012°16'0 0.0
2014-Dec-14 06:25N 57°04' E 012°16'0 0.0
2014-Dec-14 05:31N 57°04' E 012°16'0 0.0
2014-Dec-14 04:31N 57°04' E 012°16'0 0.0
2014-Dec-14 03:31N 57°04' E 012°16'0 0.0
2014-Dec-14 02:31N 57°04' E 012°16'0 0.0
2014-Dec-14 01:31N 57°04' E 012°16'0 0.0
2014-Dec-14 00:25N 57°04' E 012°16'0 0.0
2014-Dec-13 23:31N 57°04' E 012°16'0 0.0
2014-Dec-13 22:31N 57°04' E 012°16'0 0.0
2014-Dec-13 21:31N 57°04' E 012°16'0 0.0
2014-Dec-13 20:25N 57°04' E 012°16'0 0.0
2014-Dec-13 19:31N 57°04' E 012°16'0 0.0
2014-Dec-13 18:31N 57°04' E 012°16'0 0.0
2014-Dec-13 17:25N 57°04' E 012°16'0 0.0
2014-Dec-13 16:19N 57°04' E 012°16'0 0.0
2014-Dec-13 15:31N 57°04' E 012°16'0 0.0
2014-Dec-13 14:07N 57°04' E 012°16'0 0.0
2014-Dec-13 13:25N 57°04' E 012°16'0 0.0
2014-Dec-13 12:19N 57°04' E 012°16'0 0.0
2014-Dec-13 11:19N 57°04' E 012°16'0 0.0
2014-Dec-13 10:13N 57°04' E 012°16'0 0.0
2014-Dec-13 09:31N 57°04' E 012°16'0 0.0
2014-Dec-13 08:31N 57°04' E 012°16'0 0.0
2014-Dec-13 07:31N 57°04' E 012°16'0 0.0
2014-Dec-13 06:31N 57°04' E 012°16'0 0.0
2014-Dec-13 05:19N 57°04' E 012°16'0 0.0
2014-Dec-13 04:31N 57°04' E 012°16'0 0.0
2014-Dec-13 03:25N 57°04' E 012°16'0 0.0
2014-Dec-13 02:25N 57°04' E 012°16'0 0.0
2014-Dec-13 01:31N 57°04' E 012°16'0 0.0
2014-Dec-13 00:31N 57°04' E 012°16'0 0.0
2014-Dec-12 23:31N 57°04' E 012°16'0 0.0
2014-Dec-12 22:31N 57°04' E 012°16'0 0.0
2014-Dec-12 21:31N 57°04' E 012°16'0 0.0
2014-Dec-12 20:31N 57°04' E 012°16'0 0.0
2014-Dec-12 19:31N 57°04' E 012°16'0 0.0
2014-Dec-12 18:25N 57°04' E 012°16'0 0.0
2014-Dec-12 17:31N 57°04' E 012°16'0 0.0
2014-Dec-12 16:25N 57°04' E 012°16'0 0.0
2014-Dec-12 14:31N 57°04' E 012°16'0 0.0
2014-Dec-12 13:25N 57°04' E 012°16'0 0.0
2014-Dec-12 12:25N 57°04' E 012°16'0 0.0
2014-Dec-12 11:19N 57°04' E 012°16'0 0.0
2014-Dec-12 10:31N 57°04' E 012°16'0 0.0
2014-Dec-12 09:31N 57°04' E 012°16'0 0.0
2014-Dec-12 08:25N 57°04' E 012°16'0 0.0
2014-Dec-12 07:31N 57°04' E 012°16'0 0.0
2014-Dec-12 06:31N 57°04' E 012°16'0 0.0
2014-Dec-12 05:31N 57°04' E 012°16'0 0.0
2014-Dec-12 03:31N 57°04' E 012°16'0 0.0
2014-Dec-12 02:31N 57°04' E 012°16'0 0.0
2014-Dec-12 01:25N 57°04' E 012°16'0 0.0
2014-Dec-12 00:31N 57°04' E 012°16'0 0.0
2014-Dec-11 23:25N 57°04' E 012°16'0 0.0
2014-Dec-11 22:19N 57°04' E 012°16'0 0.0
2014-Dec-11 21:31N 57°04' E 012°16'0 0.0
2014-Dec-11 20:19N 57°04' E 012°16'0 0.0
2014-Dec-11 19:25N 57°04' E 012°16'0 0.0
2014-Dec-11 18:19N 57°04' E 012°16'0 0.0
2014-Dec-11 17:31N 57°04' E 012°16'0 0.0
2014-Dec-11 16:31N 57°04' E 012°16'0 0.0
2014-Dec-11 15:19N 57°04' E 012°16'0 0.0
2014-Dec-11 14:25N 57°04' E 012°16'0 0.0
2014-Dec-11 13:25N 57°04' E 012°16'0 0.0
2014-Dec-11 12:25N 57°04' E 012°16'0 0.0
2014-Dec-11 11:19N 57°04' E 012°16'0 0.0
2014-Dec-11 10:13N 57°04' E 012°16'0 0.0
2014-Dec-11 09:31N 57°04' E 012°16'0 0.0
2014-Dec-11 08:31N 57°04' E 012°16'0 0.0
2014-Dec-11 07:25N 57°04' E 012°16'0 0.0
2014-Dec-11 06:31N 57°04' E 012°16'0 0.0
2014-Dec-11 05:31N 57°04' E 012°16'0 0.0
2014-Dec-11 04:13N 57°04' E 012°16'0 0.0
2014-Dec-11 03:31N 57°04' E 012°16'0 0.0
2014-Dec-11 02:25N 57°04' E 012°16'0 0.0
2014-Dec-11 01:19N 57°04' E 012°16'0 0.0
2014-Dec-11 00:19N 57°04' E 012°16'0 0.0
2014-Dec-10 23:31N 57°04' E 012°16'0 0.0
2014-Dec-10 22:31N 57°04' E 012°16'0 0.0
2014-Dec-10 21:13N 57°04' E 012°16'0 0.0
2014-Dec-10 20:19N 57°04' E 012°16'0 0.0
2014-Dec-10 19:31N 57°04' E 012°16'0 0.0
2014-Dec-10 18:25N 57°04' E 012°16'0 0.0
2014-Dec-10 17:31N 57°04' E 012°16'0 0.0
2014-Dec-10 16:25N 57°04' E 012°16'0 0.0
2014-Dec-10 15:32N 57°04' E 012°16'0 0.0
2014-Dec-10 14:32N 57°04' E 012°16'0 0.0
2014-Dec-10 13:32N 57°04' E 012°16'0 0.0
2014-Dec-10 12:32N 57°04' E 012°16'0 0.0
2014-Dec-10 10:32N 57°04' E 012°16'0 0.0
2014-Dec-10 08:26N 57°04' E 012°16'0 0.0
2014-Dec-10 07:32N 57°04' E 012°16'0 0.0
2014-Dec-10 06:08N 57°04' E 012°16'0 0.0
2014-Dec-10 05:32N 57°04' E 012°16'0 0.0
2014-Dec-10 04:32N 57°04' E 012°16'0 0.0
2014-Dec-10 03:08N 57°04' E 012°16'0 0.0
2014-Dec-10 02:32N 57°04' E 012°16'0 0.0
2014-Dec-10 01:26N 57°04' E 012°16'0 0.0
2014-Dec-10 00:32N 57°04' E 012°16'0 0.0
2014-Dec-09 23:32N 57°04' E 012°16'0 0.0
2014-Dec-09 22:32N 57°04' E 012°16'0 0.0
2014-Dec-09 20:26N 57°04' E 012°16'0 0.0
2014-Dec-09 19:26N 57°04' E 012°16'0 0.0
2014-Dec-09 18:32N 57°04' E 012°16'0 0.2
2014-Dec-09 16:28N 57°03' E 012°16'7 7.9
2014-Dec-09 15:31N 57°02' E 012°02'3 2.6
2014-Dec-09 14:33N 57°02' E 011°58'  

Dump ship's entire track history